sensor_id;sensor_type;location;lat;lon;timestamp;temperature;humidity
10986;DHT22;5546;48.714;8.738;2022-10-04T00:00:21;10.20;99.90
10986;DHT22;5546;48.714;8.738;2022-10-04T00:02:49;9.80;99.90
10986;DHT22;5546;48.714;8.738;2022-10-04T00:05:17;9.90;99.90
10986;DHT22;5546;48.714;8.738;2022-10-04T00:07:55;10.20;99.90
10986;DHT22;5546;48.714;8.738;2022-10-04T00:10:27;10.20;99.90
10986;DHT22;5546;48.714;8.738;2022-10-04T00:13:05;10.50;99.90
10986;DHT22;5546;48.714;8.738;2022-10-04T00:15:36;9.90;99.90
10986;DHT22;5546;48.714;8.738;2022-10-04T00:26:00;9.70;99.90
10986;DHT22;5546;48.714;8.738;2022-10-04T00:33:47;9.70;99.90
10986;DHT22;5546;48.714;8.738;2022-10-04T00:41:55;9.80;99.90
10986;DHT22;5546;48.714;8.738;2022-10-04T00:44:38;9.70;99.90
10986;DHT22;5546;48.714;8.738;2022-10-04T00:47:30;9.40;99.90
10986;DHT22;5546;48.714;8.738;2022-10-04T00:50:28;9.50;99.90
10986;DHT22;5546;48.714;8.738;2022-10-04T00:52:59;9.60;99.90
10986;DHT22;5546;48.714;8.738;2022-10-04T00:55:48;9.50;99.90
10986;DHT22;5546;48.714;8.738;2022-10-04T00:58:23;9.20;99.90
10986;DHT22;5546;48.714;8.738;2022-10-04T01:00:51;9.20;99.90
10986;DHT22;5546;48.714;8.738;2022-10-04T01:03:22;9.20;99.90
10986;DHT22;5546;48.714;8.738;2022-10-04T01:05:54;9.20;99.90
10986;DHT22;5546;48.714;8.738;2022-10-04T01:08:26;9.30;99.90
10986;DHT22;5546;48.714;8.738;2022-10-04T01:10:57;9.70;99.90
10986;DHT22;5546;48.714;8.738;2022-10-04T01:16:14;10.00;99.90
10986;DHT22;5546;48.714;8.738;2022-10-04T01:18:42;10.00;99.90
10986;DHT22;5546;48.714;8.738;2022-10-04T01:28:49;10.50;99.90
10986;DHT22;5546;48.714;8.738;2022-10-04T01:31:14;10.60;99.60
10986;DHT22;5546;48.714;8.738;2022-10-04T01:33:40;10.60;99.60
10986;DHT22;5546;48.714;8.738;2022-10-04T01:36:06;10.80;99.20
10986;DHT22;5546;48.714;8.738;2022-10-04T01:38:32;10.60;99.00
10986;DHT22;5546;48.714;8.738;2022-10-04T01:40:59;10.60;99.20
10986;DHT22;5546;48.714;8.738;2022-10-04T01:43:31;10.70;99.20
10986;DHT22;5546;48.714;8.738;2022-10-04T01:46:01;10.30;99.30
10986;DHT22;5546;48.714;8.738;2022-10-04T01:48:32;9.70;99.90
10986;DHT22;5546;48.714;8.738;2022-10-04T01:51:12;9.70;99.90
10986;DHT22;5546;48.714;8.738;2022-10-04T01:54:16;9.70;99.90
10986;DHT22;5546;48.714;8.738;2022-10-04T01:56:46;9.20;99.90
10986;DHT22;5546;48.714;8.738;2022-10-04T01:59:16;9.20;99.90
10986;DHT22;5546;48.714;8.738;2022-10-04T02:01:44;8.80;99.90
10986;DHT22;5546;48.714;8.738;2022-10-04T02:04:18;8.80;99.90
10986;DHT22;5546;48.714;8.738;2022-10-04T02:06:46;8.70;99.90
10986;DHT22;5546;48.714;8.738;2022-10-04T02:09:27;8.60;99.90
10986;DHT22;5546;48.714;8.738;2022-10-04T02:11:54;8.60;99.90
10986;DHT22;5546;48.714;8.738;2022-10-04T02:14:23;8.90;99.90
10986;DHT22;5546;48.714;8.738;2022-10-04T02:16:51;8.80;99.90
10986;DHT22;5546;48.714;8.738;2022-10-04T02:19:19;8.90;99.90
10986;DHT22;5546;48.714;8.738;2022-10-04T02:21:46;9.00;99.90
10986;DHT22;5546;48.714;8.738;2022-10-04T02:24:12;8.80;99.90
10986;DHT22;5546;48.714;8.738;2022-10-04T02:26:38;8.70;99.90
10986;DHT22;5546;48.714;8.738;2022-10-04T02:29:04;8.70;99.90
10986;DHT22;5546;48.714;8.738;2022-10-04T02:31:29;8.80;99.90
10986;DHT22;5546;48.714;8.738;2022-10-04T02:34:16;9.10;99.90
10986;DHT22;5546;48.714;8.738;2022-10-04T02:36:43;8.60;99.90
10986;DHT22;5546;48.714;8.738;2022-10-04T02:39:24;8.60;99.90
10986;DHT22;5546;48.714;8.738;2022-10-04T02:44:43;8.30;99.90
10986;DHT22;5546;48.714;8.738;2022-10-04T02:47:22;8.40;99.90
10986;DHT22;5546;48.714;8.738;2022-10-04T02:49:52;8.40;99.90
10986;DHT22;5546;48.714;8.738;2022-10-04T02:52:36;8.50;99.90
10986;DHT22;5546;48.714;8.738;2022-10-04T02:55:11;8.50;99.90
10986;DHT22;5546;48.714;8.738;2022-10-04T02:57:40;8.70;99.90
10986;DHT22;5546;48.714;8.738;2022-10-04T03:02:42;9.30;99.90
10986;DHT22;5546;48.714;8.738;2022-10-04T03:05:27;9.50;99.90
10986;DHT22;5546;48.714;8.738;2022-10-04T03:07:53;9.10;99.90
10986;DHT22;5546;48.714;8.738;2022-10-04T03:10:18;9.30;99.90
10986;DHT22;5546;48.714;8.738;2022-10-04T03:12:49;9.20;99.90
10986;DHT22;5546;48.714;8.738;2022-10-04T03:15:15;9.10;99.90
10986;DHT22;5546;48.714;8.738;2022-10-04T03:17:42;9.40;99.90
10986;DHT22;5546;48.714;8.738;2022-10-04T03:20:10;9.30;99.90
10986;DHT22;5546;48.714;8.738;2022-10-04T03:22:40;9.30;99.90
10986;DHT22;5546;48.714;8.738;2022-10-04T03:25:14;9.80;99.80
10986;DHT22;5546;48.714;8.738;2022-10-04T03:27:42;9.90;99.40
10986;DHT22;5546;48.714;8.738;2022-10-04T03:30:12;9.70;99.00
10986;DHT22;5546;48.714;8.738;2022-10-04T03:32:38;9.70;99.30
10986;DHT22;5546;48.714;8.738;2022-10-04T03:35:18;9.30;99.80
10986;DHT22;5546;48.714;8.738;2022-10-04T03:37:44;9.20;99.90
10986;DHT22;5546;48.714;8.738;2022-10-04T03:40:11;8.80;99.90
10986;DHT22;5546;48.714;8.738;2022-10-04T03:42:37;8.70;99.90
10986;DHT22;5546;48.714;8.738;2022-10-04T03:45:07;8.90;99.90
10986;DHT22;5546;48.714;8.738;2022-10-04T03:47:38;8.70;99.90
10986;DHT22;5546;48.714;8.738;2022-10-04T03:50:21;8.40;99.90
10986;DHT22;5546;48.714;8.738;2022-10-04T03:52:58;8.30;99.90
10986;DHT22;5546;48.714;8.738;2022-10-04T03:55:32;8.80;99.90
10986;DHT22;5546;48.714;8.738;2022-10-04T03:57:58;8.70;99.90
10986;DHT22;5546;48.714;8.738;2022-10-04T04:00:25;8.70;99.90
10986;DHT22;5546;48.714;8.738;2022-10-04T04:03:04;8.80;99.90
10986;DHT22;5546;48.714;8.738;2022-10-04T04:05:35;9.00;99.90
10986;DHT22;5546;48.714;8.738;2022-10-04T04:08:13;8.80;99.90
10986;DHT22;5546;48.714;8.738;2022-10-04T04:10:46;8.50;99.90
10986;DHT22;5546;48.714;8.738;2022-10-04T04:13:28;8.30;99.90
10986;DHT22;5546;48.714;8.738;2022-10-04T04:15:59;8.30;99.90
10986;DHT22;5546;48.714;8.738;2022-10-04T04:18:29;8.20;99.90
10986;DHT22;5546;48.714;8.738;2022-10-04T04:20:58;8.50;99.90
10986;DHT22;5546;48.714;8.738;2022-10-04T04:23:31;8.50;99.90
10986;DHT22;5546;48.714;8.738;2022-10-04T04:26:12;8.20;99.90
10986;DHT22;5546;48.714;8.738;2022-10-04T04:28:45;8.00;99.90
10986;DHT22;5546;48.714;8.738;2022-10-04T04:31:29;8.30;99.90
10986;DHT22;5546;48.714;8.738;2022-10-04T04:34:04;7.70;99.90
10986;DHT22;5546;48.714;8.738;2022-10-04T04:36:37;7.70;99.90
10986;DHT22;5546;48.714;8.738;2022-10-04T04:42:03;7.80;99.90
10986;DHT22;5546;48.714;8.738;2022-10-04T04:44:30;7.80;99.90
10986;DHT22;5546;48.714;8.738;2022-10-04T04:46:56;7.80;99.90
10986;DHT22;5546;48.714;8.738;2022-10-04T04:49:26;7.70;99.90
10986;DHT22;5546;48.714;8.738;2022-10-04T04:51:54;8.00;99.90
10986;DHT22;5546;48.714;8.738;2022-10-04T04:54:24;8.00;99.90
10986;DHT22;5546;48.714;8.738;2022-10-04T04:56:52;8.40;99.90
10986;DHT22;5546;48.714;8.738;2022-10-04T04:59:19;8.70;99.90
10986;DHT22;5546;48.714;8.738;2022-10-04T05:01:47;8.60;99.90
10986;DHT22;5546;48.714;8.738;2022-10-04T05:04:20;9.10;99.90
10986;DHT22;5546;48.714;8.738;2022-10-04T05:06:57;9.50;98.90
10986;DHT22;5546;48.714;8.738;2022-10-04T05:09:28;9.50;99.10
10986;DHT22;5546;48.714;8.738;2022-10-04T05:14:28;9.10;99.30
10986;DHT22;5546;48.714;8.738;2022-10-04T05:16:56;9.20;99.20
10986;DHT22;5546;48.714;8.738;2022-10-04T05:19:23;8.50;99.30
10986;DHT22;5546;48.714;8.738;2022-10-04T05:21:53;8.40;99.70
10986;DHT22;5546;48.714;8.738;2022-10-04T05:26:49;8.90;99.70
10986;DHT22;5546;48.714;8.738;2022-10-04T05:29:17;9.10;98.90
10986;DHT22;5546;48.714;8.738;2022-10-04T05:31:48;8.90;98.90
10986;DHT22;5546;48.714;8.738;2022-10-04T05:34:24;8.80;99.00
10986;DHT22;5546;48.714;8.738;2022-10-04T05:37:11;8.80;99.30
10986;DHT22;5546;48.714;8.738;2022-10-04T05:39:42;8.30;99.50
10986;DHT22;5546;48.714;8.738;2022-10-04T05:42:20;8.30;99.80
10986;DHT22;5546;48.714;8.738;2022-10-04T05:44:55;8.40;99.70
10986;DHT22;5546;48.714;8.738;2022-10-04T05:47:24;8.70;99.40
10986;DHT22;5546;48.714;8.738;2022-10-04T05:49:53;8.30;99.30
10986;DHT22;5546;48.714;8.738;2022-10-04T05:52:36;8.30;99.70
10986;DHT22;5546;48.714;8.738;2022-10-04T05:58:11;8.90;99.70
10986;DHT22;5546;48.714;8.738;2022-10-04T06:01:12;9.20;98.50
10986;DHT22;5546;48.714;8.738;2022-10-04T06:06:31;9.30;98.10
10986;DHT22;5546;48.714;8.738;2022-10-04T06:09:12;8.90;98.80
10986;DHT22;5546;48.714;8.738;2022-10-04T06:11:52;7.90;99.90
10986;DHT22;5546;48.714;8.738;2022-10-04T06:14:35;7.60;99.90
10986;DHT22;5546;48.714;8.738;2022-10-04T06:17:34;7.70;99.90
10986;DHT22;5546;48.714;8.738;2022-10-04T06:22:28;8.20;99.90
10986;DHT22;5546;48.714;8.738;2022-10-04T06:25:05;8.40;99.90
10986;DHT22;5546;48.714;8.738;2022-10-04T06:27:48;8.70;99.60
10986;DHT22;5546;48.714;8.738;2022-10-04T06:30:17;8.80;99.00
10986;DHT22;5546;48.714;8.738;2022-10-04T06:33:13;8.50;99.60
10986;DHT22;5546;48.714;8.738;2022-10-04T06:44:25;8.30;99.90
10986;DHT22;5546;48.714;8.738;2022-10-04T06:47:27;8.30;99.90
10986;DHT22;5546;48.714;8.738;2022-10-04T06:50:10;8.40;99.90
10986;DHT22;5546;48.714;8.738;2022-10-04T06:52:53;8.40;99.90
10986;DHT22;5546;48.714;8.738;2022-10-04T06:55:26;8.50;99.50
10986;DHT22;5546;48.714;8.738;2022-10-04T06:58:12;8.50;99.80
10986;DHT22;5546;48.714;8.738;2022-10-04T07:01:16;8.80;99.40
10986;DHT22;5546;48.714;8.738;2022-10-04T07:04:14;8.90;99.60
10986;DHT22;5546;48.714;8.738;2022-10-04T07:06:56;9.10;99.30
10986;DHT22;5546;48.714;8.738;2022-10-04T07:09:44;9.00;99.20
10986;DHT22;5546;48.714;8.738;2022-10-04T07:12:11;8.70;99.70
10986;DHT22;5546;48.714;8.738;2022-10-04T07:14:49;8.70;99.90
10986;DHT22;5546;48.714;8.738;2022-10-04T07:17:23;8.60;99.90
10986;DHT22;5546;48.714;8.738;2022-10-04T07:19:52;8.90;99.80
10986;DHT22;5546;48.714;8.738;2022-10-04T07:22:33;8.90;99.90
10986;DHT22;5546;48.714;8.738;2022-10-04T07:25:18;8.60;99.90
10986;DHT22;5546;48.714;8.738;2022-10-04T07:34:01;9.60;99.70
10986;DHT22;5546;48.714;8.738;2022-10-04T07:36:49;9.20;99.90
10986;DHT22;5546;48.714;8.738;2022-10-04T07:39:20;9.40;99.60
10986;DHT22;5546;48.714;8.738;2022-10-04T07:41:51;9.30;99.60
10986;DHT22;5546;48.714;8.738;2022-10-04T07:45:01;9.30;99.80
10986;DHT22;5546;48.714;8.738;2022-10-04T07:47:28;9.50;99.50
10986;DHT22;5546;48.714;8.738;2022-10-04T07:49:55;9.60;99.40
10986;DHT22;5546;48.714;8.738;2022-10-04T07:52:58;9.70;99.60
10986;DHT22;5546;48.714;8.738;2022-10-04T08:04:34;10.30;99.20
10986;DHT22;5546;48.714;8.738;2022-10-04T08:07:45;10.40;98.60
10986;DHT22;5546;48.714;8.738;2022-10-04T08:10:29;10.20;99.20
10986;DHT22;5546;48.714;8.738;2022-10-04T08:13:14;10.40;99.00
10986;DHT22;5546;48.714;8.738;2022-10-04T08:15:43;10.40;99.20
10986;DHT22;5546;48.714;8.738;2022-10-04T08:18:37;10.50;98.70
10986;DHT22;5546;48.714;8.738;2022-10-04T08:21:08;10.50;99.00
10986;DHT22;5546;48.714;8.738;2022-10-04T08:26:52;11.90;97.40
10986;DHT22;5546;48.714;8.738;2022-10-04T08:35:26;15.70;91.70
10986;DHT22;5546;48.714;8.738;2022-10-04T08:51:37;19.00;80.50
10986;DHT22;5546;48.714;8.738;2022-10-04T09:11:09;15.20;93.10
10986;DHT22;5546;48.714;8.738;2022-10-04T09:16:36;15.70;92.90
10986;DHT22;5546;48.714;8.738;2022-10-04T09:19:22;16.30;92.20
10986;DHT22;5546;48.714;8.738;2022-10-04T09:22:16;17.10;91.00
10986;DHT22;5546;48.714;8.738;2022-10-04T09:33:53;18.40;89.70
10986;DHT22;5546;48.714;8.738;2022-10-04T09:37:35;19.80;87.50
10986;DHT22;5546;48.714;8.738;2022-10-04T09:40:02;21.00;82.70
10986;DHT22;5546;48.714;8.738;2022-10-04T09:45:14;22.00;78.40
10986;DHT22;5546;48.714;8.738;2022-10-04T09:59:47;24.40;73.90
10986;DHT22;5546;48.714;8.738;2022-10-04T10:05:34;26.50;68.30
10986;DHT22;5546;48.714;8.738;2022-10-04T10:08:16;27.60;61.10
10986;DHT22;5546;48.714;8.738;2022-10-04T10:25:11;28.10;59.20
10986;DHT22;5546;48.714;8.738;2022-10-04T10:34:08;30.20;52.40
10986;DHT22;5546;48.714;8.738;2022-10-04T10:42:27;29.20;54.70
10986;DHT22;5546;48.714;8.738;2022-10-04T10:45:34;30.90;51.90
10986;DHT22;5546;48.714;8.738;2022-10-04T10:48:15;29.70;52.40
10986;DHT22;5546;48.714;8.738;2022-10-04T10:50:56;29.70;52.20
10986;DHT22;5546;48.714;8.738;2022-10-04T10:53:59;30.00;52.50
10986;DHT22;5546;48.714;8.738;2022-10-04T11:02:16;32.60;49.00
10986;DHT22;5546;48.714;8.738;2022-10-04T11:07:54;33.70;49.40
10986;DHT22;5546;48.714;8.738;2022-10-04T11:16:32;33.30;48.20
10986;DHT22;5546;48.714;8.738;2022-10-04T11:44:43;33.50;46.10
10986;DHT22;5546;48.714;8.738;2022-10-04T11:53:12;33.30;49.30
10986;DHT22;5546;48.714;8.738;2022-10-04T11:56:07;33.40;49.50
10986;DHT22;5546;48.714;8.738;2022-10-04T11:58:57;33.90;49.40
10986;DHT22;5546;48.714;8.738;2022-10-04T12:13:13;34.10;49.40
10986;DHT22;5546;48.714;8.738;2022-10-04T12:18:46;34.60;48.30
10986;DHT22;5546;48.714;8.738;2022-10-04T12:21:53;35.30;48.10
10986;DHT22;5546;48.714;8.738;2022-10-04T12:27:51;35.80;45.40
10986;DHT22;5546;48.714;8.738;2022-10-04T12:33:08;35.00;47.20
10986;DHT22;5546;48.714;8.738;2022-10-04T12:36:09;35.30;47.50
10986;DHT22;5546;48.714;8.738;2022-10-04T12:41:34;34.10;48.20
10986;DHT22;5546;48.714;8.738;2022-10-04T12:47:04;32.70;50.20
10986;DHT22;5546;48.714;8.738;2022-10-04T12:49:46;32.60;51.10
10986;DHT22;5546;48.714;8.738;2022-10-04T12:52:22;32.80;50.50
10986;DHT22;5546;48.714;8.738;2022-10-04T12:55:21;33.30;49.60
10986;DHT22;5546;48.714;8.738;2022-10-04T12:57:59;33.30;49.40
10986;DHT22;5546;48.714;8.738;2022-10-04T13:00:28;32.70;51.30
10986;DHT22;5546;48.714;8.738;2022-10-04T13:03:21;33.70;48.90
10986;DHT22;5546;48.714;8.738;2022-10-04T13:08:54;32.80;49.50
10986;DHT22;5546;48.714;8.738;2022-10-04T13:16:43;32.80;49.60
10986;DHT22;5546;48.714;8.738;2022-10-04T13:22:03;31.90;52.30
10986;DHT22;5546;48.714;8.738;2022-10-04T13:41:32;29.00;55.10
10986;DHT22;5546;48.714;8.738;2022-10-04T13:44:23;28.50;57.30
10986;DHT22;5546;48.714;8.738;2022-10-04T13:52:52;24.30;66.70
10986;DHT22;5546;48.714;8.738;2022-10-04T13:55:58;23.10;70.60
10986;DHT22;5546;48.714;8.738;2022-10-04T13:58:50;21.50;74.00
10986;DHT22;5546;48.714;8.738;2022-10-04T14:06:57;19.60;85.50
10986;DHT22;5546;48.714;8.738;2022-10-04T14:09:49;19.20;89.30
10986;DHT22;5546;48.714;8.738;2022-10-04T14:15:33;19.20;89.20
10986;DHT22;5546;48.714;8.738;2022-10-04T14:18:19;19.20;90.10
10986;DHT22;5546;48.714;8.738;2022-10-04T14:21:07;18.40;91.00
10986;DHT22;5546;48.714;8.738;2022-10-04T14:32:32;18.60;91.60
10986;DHT22;5546;48.714;8.738;2022-10-04T14:35:15;18.50;91.90
10986;DHT22;5546;48.714;8.738;2022-10-04T14:40:39;18.60;91.90
10986;DHT22;5546;48.714;8.738;2022-10-04T14:46:39;18.90;92.00
10986;DHT22;5546;48.714;8.738;2022-10-04T14:49:21;18.80;91.90
10986;DHT22;5546;48.714;8.738;2022-10-04T14:54:41;18.80;91.90
10986;DHT22;5546;48.714;8.738;2022-10-04T15:10:52;18.00;94.60
10986;DHT22;5546;48.714;8.738;2022-10-04T15:13:25;18.00;95.10
10986;DHT22;5546;48.714;8.738;2022-10-04T15:18:56;18.10;95.30
10986;DHT22;5546;48.714;8.738;2022-10-04T15:26:49;17.60;96.20
10986;DHT22;5546;48.714;8.738;2022-10-04T15:29:21;18.00;95.70
10986;DHT22;5546;48.714;8.738;2022-10-04T15:34:47;17.90;96.30
10986;DHT22;5546;48.714;8.738;2022-10-04T15:37:34;17.70;96.90
10986;DHT22;5546;48.714;8.738;2022-10-04T15:40:39;17.80;97.10
10986;DHT22;5546;48.714;8.738;2022-10-04T15:45:55;17.40;97.90
10986;DHT22;5546;48.714;8.738;2022-10-04T15:48:49;17.60;97.30
10986;DHT22;5546;48.714;8.738;2022-10-04T15:54:33;17.00;98.80
10986;DHT22;5546;48.714;8.738;2022-10-04T16:00:40;17.40;98.60
10986;DHT22;5546;48.714;8.738;2022-10-04T16:06:03;17.60;98.10
10986;DHT22;5546;48.714;8.738;2022-10-04T16:08:41;17.10;99.10
10986;DHT22;5546;48.714;8.738;2022-10-04T16:14:05;17.50;98.60
10986;DHT22;5546;48.714;8.738;2022-10-04T16:19:21;17.60;98.40
10986;DHT22;5546;48.714;8.738;2022-10-04T16:21:53;17.50;98.10
10986;DHT22;5546;48.714;8.738;2022-10-04T16:29:59;17.60;98.10
10986;DHT22;5546;48.714;8.738;2022-10-04T16:33:19;17.60;98.40
10986;DHT22;5546;48.714;8.738;2022-10-04T16:36:04;17.60;98.80
10986;DHT22;5546;48.714;8.738;2022-10-04T16:38:36;17.30;99.00
10986;DHT22;5546;48.714;8.738;2022-10-04T16:41:35;16.90;99.80
10986;DHT22;5546;48.714;8.738;2022-10-04T16:46:52;17.30;98.20
10986;DHT22;5546;48.714;8.738;2022-10-04T16:49:27;17.40;98.40
10986;DHT22;5546;48.714;8.738;2022-10-04T16:52:16;17.30;97.90
10986;DHT22;5546;48.714;8.738;2022-10-04T17:18:11;16.80;98.90
10986;DHT22;5546;48.714;8.738;2022-10-04T17:28:59;16.50;99.00
10986;DHT22;5546;48.714;8.738;2022-10-04T17:31:51;16.40;99.30
10986;DHT22;5546;48.714;8.738;2022-10-04T17:37:32;16.40;98.50
10986;DHT22;5546;48.714;8.738;2022-10-04T17:48:20;15.80;99.50
10986;DHT22;5546;48.714;8.738;2022-10-04T17:51:40;15.80;99.70
10986;DHT22;5546;48.714;8.738;2022-10-04T17:54:59;15.70;99.50
10986;DHT22;5546;48.714;8.738;2022-10-04T17:57:58;15.80;99.80
10986;DHT22;5546;48.714;8.738;2022-10-04T18:00:27;15.90;99.30
10986;DHT22;5546;48.714;8.738;2022-10-04T18:03:15;15.80;99.40
10986;DHT22;5546;48.714;8.738;2022-10-04T18:08:39;15.70;99.00
10986;DHT22;5546;48.714;8.738;2022-10-04T18:11:58;15.80;99.10
10986;DHT22;5546;48.714;8.738;2022-10-04T18:14:07;15.80;99.30
10986;DHT22;5546;48.714;8.738;2022-10-04T18:16:44;15.60;99.20
10986;DHT22;5546;48.714;8.738;2022-10-04T18:19:36;15.60;99.50
10986;DHT22;5546;48.714;8.738;2022-10-04T18:22:23;15.60;99.20
10986;DHT22;5546;48.714;8.738;2022-10-04T18:25:14;15.60;99.40
10986;DHT22;5546;48.714;8.738;2022-10-04T18:28:01;15.60;99.40
10986;DHT22;5546;48.714;8.738;2022-10-04T18:30:32;15.40;99.70
10986;DHT22;5546;48.714;8.738;2022-10-04T18:32:58;15.30;99.70
10986;DHT22;5546;48.714;8.738;2022-10-04T18:35:26;15.20;99.40
10986;DHT22;5546;48.714;8.738;2022-10-04T18:40:34;15.20;99.70
10986;DHT22;5546;48.714;8.738;2022-10-04T18:46:01;15.20;99.20
10986;DHT22;5546;48.714;8.738;2022-10-04T18:48:58;15.20;99.20
10986;DHT22;5546;48.714;8.738;2022-10-04T18:51:37;15.10;99.20
10986;DHT22;5546;48.714;8.738;2022-10-04T19:05:35;15.10;99.00
10986;DHT22;5546;48.714;8.738;2022-10-04T19:08:32;14.90;99.10
10986;DHT22;5546;48.714;8.738;2022-10-04T19:11:07;14.80;99.30
10986;DHT22;5546;48.714;8.738;2022-10-04T19:16:33;14.90;99.20
10986;DHT22;5546;48.714;8.738;2022-10-04T19:19:25;14.90;99.50
10986;DHT22;5546;48.714;8.738;2022-10-04T19:24:46;14.60;99.50
10986;DHT22;5546;48.714;8.738;2022-10-04T19:28:12;14.60;99.40
10986;DHT22;5546;48.714;8.738;2022-10-04T19:33:08;14.60;99.70
10986;DHT22;5546;48.714;8.738;2022-10-04T19:36:19;14.60;99.90
10986;DHT22;5546;48.714;8.738;2022-10-04T19:44:19;14.40;99.30
10986;DHT22;5546;48.714;8.738;2022-10-04T19:46:58;14.50;99.20
10986;DHT22;5546;48.714;8.738;2022-10-04T19:52:35;14.50;99.20
10986;DHT22;5546;48.714;8.738;2022-10-04T19:57:43;14.30;99.80
10986;DHT22;5546;48.714;8.738;2022-10-04T20:00:12;14.30;99.70
10986;DHT22;5546;48.714;8.738;2022-10-04T20:02:40;14.20;99.20
10986;DHT22;5546;48.714;8.738;2022-10-04T20:05:15;14.20;99.50
10986;DHT22;5546;48.714;8.738;2022-10-04T20:07:48;14.10;99.50
10986;DHT22;5546;48.714;8.738;2022-10-04T20:10:28;14.10;99.40
10986;DHT22;5546;48.714;8.738;2022-10-04T20:23:47;14.10;99.50
10986;DHT22;5546;48.714;8.738;2022-10-04T20:26:39;13.90;99.20
10986;DHT22;5546;48.714;8.738;2022-10-04T20:32:05;13.70;99.90
10986;DHT22;5546;48.714;8.738;2022-10-04T20:34:33;13.80;99.90
10986;DHT22;5546;48.714;8.738;2022-10-04T20:37:07;14.10;99.20
10986;DHT22;5546;48.714;8.738;2022-10-04T20:44:59;13.90;99.60
10986;DHT22;5546;48.714;8.738;2022-10-04T20:47:33;14.00;99.60
10986;DHT22;5546;48.714;8.738;2022-10-04T20:50:00;14.00;99.80
10986;DHT22;5546;48.714;8.738;2022-10-04T20:52:31;14.10;99.50
10986;DHT22;5546;48.714;8.738;2022-10-04T20:54:59;14.10;99.70
10986;DHT22;5546;48.714;8.738;2022-10-04T20:57:30;14.10;99.30
10986;DHT22;5546;48.714;8.738;2022-10-04T20:59:57;14.00;99.40
10986;DHT22;5546;48.714;8.738;2022-10-04T21:02:24;14.00;99.40
10986;DHT22;5546;48.714;8.738;2022-10-04T21:04:52;14.10;99.60
10986;DHT22;5546;48.714;8.738;2022-10-04T21:07:20;14.20;99.40
10986;DHT22;5546;48.714;8.738;2022-10-04T21:09:47;14.20;99.00
10986;DHT22;5546;48.714;8.738;2022-10-04T21:12:28;14.30;98.80
10986;DHT22;5546;48.714;8.738;2022-10-04T21:15:20;14.30;99.00
10986;DHT22;5546;48.714;8.738;2022-10-04T21:18:06;14.30;99.20
10986;DHT22;5546;48.714;8.738;2022-10-04T21:20:49;14.30;98.60
10986;DHT22;5546;48.714;8.738;2022-10-04T21:23:18;14.40;98.50
10986;DHT22;5546;48.714;8.738;2022-10-04T21:25:45;14.50;98.80
10986;DHT22;5546;48.714;8.738;2022-10-04T21:28:29;14.30;98.70
10986;DHT22;5546;48.714;8.738;2022-10-04T21:30:55;14.30;99.00
10986;DHT22;5546;48.714;8.738;2022-10-04T21:33:21;14.40;98.50
10986;DHT22;5546;48.714;8.738;2022-10-04T21:35:50;14.40;98.70
10986;DHT22;5546;48.714;8.738;2022-10-04T21:38:17;14.20;98.80
10986;DHT22;5546;48.714;8.738;2022-10-04T21:40:42;14.30;98.70
10986;DHT22;5546;48.714;8.738;2022-10-04T21:43:08;14.30;99.00
10986;DHT22;5546;48.714;8.738;2022-10-04T21:45:33;14.40;98.90
10986;DHT22;5546;48.714;8.738;2022-10-04T21:47:59;14.40;98.80
10986;DHT22;5546;48.714;8.738;2022-10-04T21:50:24;14.30;99.20
10986;DHT22;5546;48.714;8.738;2022-10-04T21:52:50;14.10;99.70
10986;DHT22;5546;48.714;8.738;2022-10-04T21:55:15;14.10;99.80
10986;DHT22;5546;48.714;8.738;2022-10-04T21:57:41;14.30;99.90
10986;DHT22;5546;48.714;8.738;2022-10-04T22:00:07;14.30;99.80
10986;DHT22;5546;48.714;8.738;2022-10-04T22:02:32;13.80;99.90
10986;DHT22;5546;48.714;8.738;2022-10-04T22:04:58;13.80;99.90
10986;DHT22;5546;48.714;8.738;2022-10-04T22:07:23;13.80;99.90
10986;DHT22;5546;48.714;8.738;2022-10-04T22:09:49;13.50;99.90
10986;DHT22;5546;48.714;8.738;2022-10-04T22:12:15;13.60;99.90
10986;DHT22;5546;48.714;8.738;2022-10-04T22:14:41;13.90;99.90
10986;DHT22;5546;48.714;8.738;2022-10-04T22:17:07;13.90;99.90
10986;DHT22;5546;48.714;8.738;2022-10-04T22:19:32;13.30;99.90
10986;DHT22;5546;48.714;8.738;2022-10-04T22:21:58;13.40;99.90
10986;DHT22;5546;48.714;8.738;2022-10-04T22:24:23;13.00;99.90
10986;DHT22;5546;48.714;8.738;2022-10-04T22:26:49;13.00;99.90
10986;DHT22;5546;48.714;8.738;2022-10-04T22:29:16;13.10;99.90
10986;DHT22;5546;48.714;8.738;2022-10-04T22:31:45;13.10;99.90
10986;DHT22;5546;48.714;8.738;2022-10-04T22:34:15;13.40;99.90
10986;DHT22;5546;48.714;8.738;2022-10-04T22:36:41;13.30;99.90
10986;DHT22;5546;48.714;8.738;2022-10-04T22:41:40;12.40;99.90
10986;DHT22;5546;48.714;8.738;2022-10-04T22:44:13;12.60;99.90
10986;DHT22;5546;48.714;8.738;2022-10-04T22:46:41;12.70;99.90
10986;DHT22;5546;48.714;8.738;2022-10-04T22:49:12;13.20;99.70
10986;DHT22;5546;48.714;8.738;2022-10-04T22:51:41;13.20;99.40
10986;DHT22;5546;48.714;8.738;2022-10-04T22:54:14;13.30;99.10
10986;DHT22;5546;48.714;8.738;2022-10-04T22:56:40;13.30;99.40
10986;DHT22;5546;48.714;8.738;2022-10-04T22:59:11;13.80;98.30
10986;DHT22;5546;48.714;8.738;2022-10-04T23:01:37;13.80;98.50
10986;DHT22;5546;48.714;8.738;2022-10-04T23:06:38;13.70;98.60
10986;DHT22;5546;48.714;8.738;2022-10-04T23:09:03;13.60;98.90
10986;DHT22;5546;48.714;8.738;2022-10-04T23:11:32;13.60;98.00
10986;DHT22;5546;48.714;8.738;2022-10-04T23:13:57;13.50;98.10
10986;DHT22;5546;48.714;8.738;2022-10-04T23:16:23;13.60;98.40
10986;DHT22;5546;48.714;8.738;2022-10-04T23:18:50;13.50;98.10
10986;DHT22;5546;48.714;8.738;2022-10-04T23:21:24;13.60;97.90
10986;DHT22;5546;48.714;8.738;2022-10-04T23:23:51;13.60;98.20
10986;DHT22;5546;48.714;8.738;2022-10-04T23:26:35;13.70;98.30
10986;DHT22;5546;48.714;8.738;2022-10-04T23:29:05;13.70;97.90
10986;DHT22;5546;48.714;8.738;2022-10-04T23:31:31;13.70;98.20
10986;DHT22;5546;48.714;8.738;2022-10-04T23:33:57;13.90;97.20
10986;DHT22;5546;48.714;8.738;2022-10-04T23:36:22;13.70;97.60
10986;DHT22;5546;48.714;8.738;2022-10-04T23:38:50;13.70;97.80
10986;DHT22;5546;48.714;8.738;2022-10-04T23:41:18;13.60;98.10
10986;DHT22;5546;48.714;8.738;2022-10-04T23:43:45;13.70;97.60
10986;DHT22;5546;48.714;8.738;2022-10-04T23:46:15;13.80;97.30
10986;DHT22;5546;48.714;8.738;2022-10-04T23:48:46;13.50;97.60
10986;DHT22;5546;48.714;8.738;2022-10-04T23:51:15;13.20;97.50
10986;DHT22;5546;48.714;8.738;2022-10-04T23:53:41;13.20;97.80
10986;DHT22;5546;48.714;8.738;2022-10-04T23:56:22;13.70;97.10
10986;DHT22;5546;48.714;8.738;2022-10-04T23:58:50;13.40;97.80
